Ophir, Oregon
Current Conditions -  °F | °C
As of 2:21 PM on Saturday 20 Dec 2014 (Local Time) from KBOK Reporting Station
Heavy Rain Heavy Rain  
Wind Chill: 54°   Ceiling: 100
Heat Index: 54°   Visibility: 0.25mi
Dew Point: 54°   Wind: 14mph
Humidity: 100%   Direction: 180°S
Pressure: 29.97"   Gusts: 30mph
Location:  42.56°N, 124.39°W
Report Text: KBOK 202221Z AUTO 18012G26KT 1/4SM +RA FG OVC001 12/12 A2997 RMK AO2 P0006 PK WND 16026/2213
Loading
Personal Weather Stations






























Interactive Weather Map New forecast layout! Learn more

10-Day Weather Forecast

Advertisements
Track Severe Weather on mobile